Thrashers, Mississippi
Current Conditions -  °F | °C
As of 8:35 AM on Sunday 23 Nov 2014 (Local Time) from KCRX Reporting Station
Haze Haze  
Wind Chill: 59°   Ceiling: 700
Heat Index: 59°   Visibility: 4mi
Dew Point: 55°   Wind: 10mph
Humidity: 88%   Direction: 130°SE
Pressure: 29.76"   Gusts: 16mph
Location:  34.6741°N, 88.5234°W
Report Text: KCRX 231435Z AUTO 13009G14KT 4SM BR BKN007 OVC010 15/13 A2976 RMK AO2
Loading
Personal Weather Stations






























Interactive Weather Map New forecast layout! Learn more

10-Day Weather Forecast

Advertisements
Track Severe Weather on mobile